sensor_id;sensor_type;location;lat;lon;timestamp;temperature;humidity
68943;DHT22;60852;52.190;4.422;2022-09-12T00:00:28;17.89;79.08
68943;DHT22;60852;52.190;4.422;2022-09-12T00:02:54;17.87;79.07
68943;DHT22;60852;52.190;4.422;2022-09-12T00:05:20;17.92;79.01
68943;DHT22;60852;52.190;4.422;2022-09-12T00:07:46;17.90;78.95
68943;DHT22;60852;52.190;4.422;2022-09-12T00:10:13;17.93;78.74
68943;DHT22;60852;52.190;4.422;2022-09-12T00:12:38;17.87;78.82
68943;DHT22;60852;52.190;4.422;2022-09-12T00:15:05;17.87;78.98
68943;DHT22;60852;52.190;4.422;2022-09-12T00:17:33;17.87;78.89
68943;DHT22;60852;52.190;4.422;2022-09-12T00:19:59;17.87;78.85
68943;DHT22;60852;52.190;4.422;2022-09-12T00:22:25;17.83;78.95
68943;DHT22;60852;52.190;4.422;2022-09-12T00:24:50;17.85;78.89
68943;DHT22;60852;52.190;4.422;2022-09-12T00:27:16;17.87;78.75
68943;DHT22;60852;52.190;4.422;2022-09-12T00:29:41;17.82;78.89
68943;DHT22;60852;52.190;4.422;2022-09-12T00:32:08;17.78;78.90
68943;DHT22;60852;52.190;4.422;2022-09-12T00:34:35;17.75;79.14
68943;DHT22;60852;52.190;4.422;2022-09-12T00:37:00;17.79;79.27
68943;DHT22;60852;52.190;4.422;2022-09-12T00:39:26;17.78;79.20
68943;DHT22;60852;52.190;4.422;2022-09-12T00:41:51;17.76;79.21
68943;DHT22;60852;52.190;4.422;2022-09-12T00:49:34;17.78;79.25
68943;DHT22;60852;52.190;4.422;2022-09-12T00:52:11;17.82;79.20
68943;DHT22;60852;52.190;4.422;2022-09-12T00:54:49;17.80;78.97
68943;DHT22;60852;52.190;4.422;2022-09-12T00:57:17;17.75;79.20
68943;DHT22;60852;52.190;4.422;2022-09-12T00:59:54;17.75;79.36
68943;DHT22;60852;52.190;4.422;2022-09-12T01:02:21;17.75;79.49
68943;DHT22;60852;52.190;4.422;2022-09-12T01:04:46;17.78;79.53
68943;DHT22;60852;52.190;4.422;2022-09-12T01:07:12;17.78;79.24
68943;DHT22;60852;52.190;4.422;2022-09-12T01:09:41;17.82;79.32
68943;DHT22;60852;52.190;4.422;2022-09-12T01:12:07;17.80;79.16
68943;DHT22;60852;52.190;4.422;2022-09-12T01:14:33;17.82;79.01
68943;DHT22;60852;52.190;4.422;2022-09-12T01:16:59;17.82;79.07
68943;DHT22;60852;52.190;4.422;2022-09-12T01:23:14;17.85;78.74
68943;DHT22;60852;52.190;4.422;2022-09-12T01:31:56;17.85;78.59
68943;DHT22;60852;52.190;4.422;2022-09-12T01:34:37;17.86;78.33
68943;DHT22;60852;52.190;4.422;2022-09-12T01:40:22;17.86;78.21
68943;DHT22;60852;52.190;4.422;2022-09-12T01:43:16;17.87;78.00
68943;DHT22;60852;52.190;4.422;2022-09-12T01:46:09;17.85;77.95
68943;DHT22;60852;52.190;4.422;2022-09-12T01:48:46;17.82;77.99
68943;DHT22;60852;52.190;4.422;2022-09-12T01:51:23;17.83;77.89
68943;DHT22;60852;52.190;4.422;2022-09-12T01:54:14;17.78;77.75
68943;DHT22;60852;52.190;4.422;2022-09-12T01:56:43;17.76;77.72
68943;DHT22;60852;52.190;4.422;2022-09-12T01:59:17;17.80;77.73
68943;DHT22;60852;52.190;4.422;2022-09-12T02:02:07;17.75;77.54
68943;DHT22;60852;52.190;4.422;2022-09-12T02:04:47;17.72;77.68
68943;DHT22;60852;52.190;4.422;2022-09-12T02:07:24;17.71;77.89
68943;DHT22;60852;52.190;4.422;2022-09-12T02:10:13;17.71;77.90
68943;DHT22;60852;52.190;4.422;2022-09-12T02:15:19;17.66;77.96
68943;DHT22;60852;52.190;4.422;2022-09-12T02:17:49;17.65;78.06
68943;DHT22;60852;52.190;4.422;2022-09-12T02:20:37;17.63;78.13
68943;DHT22;60852;52.190;4.422;2022-09-12T02:23:10;17.63;78.39
68943;DHT22;60852;52.190;4.422;2022-09-12T02:25:43;17.65;78.25
68943;DHT22;60852;52.190;4.422;2022-09-12T02:28:32;17.66;78.14
68943;DHT22;60852;52.190;4.422;2022-09-12T02:31:28;17.72;77.87
68943;DHT22;60852;52.190;4.422;2022-09-12T02:37:06;17.82;77.50
68943;DHT22;60852;52.190;4.422;2022-09-12T02:39:35;17.83;77.22
68943;DHT22;60852;52.190;4.422;2022-09-12T02:42:02;17.87;77.20
68943;DHT22;60852;52.190;4.422;2022-09-12T02:44:30;17.87;77.00
68943;DHT22;60852;52.190;4.422;2022-09-12T02:47:03;17.92;76.95
68943;DHT22;60852;52.190;4.422;2022-09-12T02:49:30;17.94;76.76
68943;DHT22;60852;52.190;4.422;2022-09-12T02:51:55;17.96;76.66
68943;DHT22;60852;52.190;4.422;2022-09-12T02:54:23;18.00;76.54
68943;DHT22;60852;52.190;4.422;2022-09-12T02:56:49;17.99;76.33
68943;DHT22;60852;52.190;4.422;2022-09-12T02:59:18;18.00;76.24
68943;DHT22;60852;52.190;4.422;2022-09-12T03:02:06;17.96;76.66
68943;DHT22;60852;52.190;4.422;2022-09-12T03:04:47;17.96;76.71
68943;DHT22;60852;52.190;4.422;2022-09-12T03:12:51;17.99;76.57
68943;DHT22;60852;52.190;4.422;2022-09-12T03:18:38;18.04;76.23
68943;DHT22;60852;52.190;4.422;2022-09-12T03:24:04;18.03;76.25
68943;DHT22;60852;52.190;4.422;2022-09-12T03:29:01;18.03;76.59
68943;DHT22;60852;52.190;4.422;2022-09-12T03:31:28;18.00;76.60
68943;DHT22;60852;52.190;4.422;2022-09-12T03:33:53;18.01;76.40
68943;DHT22;60852;52.190;4.422;2022-09-12T03:36:23;18.00;76.33
68943;DHT22;60852;52.190;4.422;2022-09-12T03:38:49;17.99;76.28
68943;DHT22;60852;52.190;4.422;2022-09-12T03:41:15;17.96;76.05
68943;DHT22;60852;52.190;4.422;2022-09-12T03:43:40;17.93;76.38
68943;DHT22;60852;52.190;4.422;2022-09-12T03:46:06;17.93;76.16
68943;DHT22;60852;52.190;4.422;2022-09-12T03:48:32;17.94;76.03
68943;DHT22;60852;52.190;4.422;2022-09-12T03:51:07;17.93;76.15
68943;DHT22;60852;52.190;4.422;2022-09-12T03:53:33;17.90;76.18
68943;DHT22;60852;52.190;4.422;2022-09-12T03:55:58;17.92;76.07
68943;DHT22;60852;52.190;4.422;2022-09-12T03:58:29;17.89;76.04
68943;DHT22;60852;52.190;4.422;2022-09-12T04:00:54;17.85;76.35
68943;DHT22;60852;52.190;4.422;2022-09-12T04:03:20;17.87;76.34
68943;DHT22;60852;52.190;4.422;2022-09-12T04:05:45;17.86;76.24
68943;DHT22;60852;52.190;4.422;2022-09-12T04:08:12;17.89;76.06
68943;DHT22;60852;52.190;4.422;2022-09-12T04:10:37;17.86;76.06
68943;DHT22;60852;52.190;4.422;2022-09-12T04:13:03;17.86;76.00
68943;DHT22;60852;52.190;4.422;2022-09-12T04:15:28;17.85;76.04
68943;DHT22;60852;52.190;4.422;2022-09-12T04:17:54;17.82;76.13
68943;DHT22;60852;52.190;4.422;2022-09-12T04:20:19;17.80;76.22
68943;DHT22;60852;52.190;4.422;2022-09-12T04:22:45;17.75;76.22
68943;DHT22;60852;52.190;4.422;2022-09-12T04:25:10;17.75;76.26
68943;DHT22;60852;52.190;4.422;2022-09-12T04:27:37;17.73;76.12
68943;DHT22;60852;52.190;4.422;2022-09-12T04:30:03;17.66;76.31
68943;DHT22;60852;52.190;4.422;2022-09-12T04:32:30;17.68;76.31
68943;DHT22;60852;52.190;4.422;2022-09-12T04:34:56;17.69;76.22
68943;DHT22;60852;52.190;4.422;2022-09-12T04:37:21;17.68;76.25
68943;DHT22;60852;52.190;4.422;2022-09-12T04:39:48;17.62;76.30
68943;DHT22;60852;52.190;4.422;2022-09-12T04:42:14;17.65;76.34
68943;DHT22;60852;52.190;4.422;2022-09-12T04:44:40;17.62;76.22
68943;DHT22;60852;52.190;4.422;2022-09-12T04:47:05;17.59;76.39
68943;DHT22;60852;52.190;4.422;2022-09-12T04:49:32;17.55;76.47
68943;DHT22;60852;52.190;4.422;2022-09-12T04:51:58;17.53;76.42
68943;DHT22;60852;52.190;4.422;2022-09-12T04:54:24;17.48;76.75
68943;DHT22;60852;52.190;4.422;2022-09-12T04:56:50;17.46;76.88
68943;DHT22;60852;52.190;4.422;2022-09-12T04:59:18;17.43;76.95
68943;DHT22;60852;52.190;4.422;2022-09-12T05:01:44;17.39;76.91
68943;DHT22;60852;52.190;4.422;2022-09-12T05:04:11;17.36;76.97
68943;DHT22;60852;52.190;4.422;2022-09-12T05:06:37;17.34;77.22
68943;DHT22;60852;52.190;4.422;2022-09-12T05:09:05;17.31;77.31
68943;DHT22;60852;52.190;4.422;2022-09-12T05:11:34;17.28;77.46
68943;DHT22;60852;52.190;4.422;2022-09-12T05:14:00;17.25;77.63
68943;DHT22;60852;52.190;4.422;2022-09-12T05:16:27;17.22;77.59
68943;DHT22;60852;52.190;4.422;2022-09-12T05:18:55;17.17;77.78
68943;DHT22;60852;52.190;4.422;2022-09-12T05:21:22;17.17;77.91
68943;DHT22;60852;52.190;4.422;2022-09-12T05:23:53;17.12;78.02
68943;DHT22;60852;52.190;4.422;2022-09-12T05:26:20;17.10;78.21
68943;DHT22;60852;52.190;4.422;2022-09-12T05:28:46;17.15;78.05
68943;DHT22;60852;52.190;4.422;2022-09-12T05:31:16;17.15;77.97
68943;DHT22;60852;52.190;4.422;2022-09-12T05:33:44;17.11;78.15
68943;DHT22;60852;52.190;4.422;2022-09-12T05:36:12;17.11;78.12
68943;DHT22;60852;52.190;4.422;2022-09-12T05:38:39;17.14;78.15
68943;DHT22;60852;52.190;4.422;2022-09-12T05:41:12;17.12;78.08
68943;DHT22;60852;52.190;4.422;2022-09-12T05:43:39;17.12;78.24
68943;DHT22;60852;52.190;4.422;2022-09-12T05:46:14;17.12;78.35
68943;DHT22;60852;52.190;4.422;2022-09-12T05:48:42;17.15;78.16
68943;DHT22;60852;52.190;4.422;2022-09-12T05:51:11;17.11;78.33
68943;DHT22;60852;52.190;4.422;2022-09-12T05:53:38;17.11;78.50
68943;DHT22;60852;52.190;4.422;2022-09-12T05:56:12;17.14;78.48
68943;DHT22;60852;52.190;4.422;2022-09-12T05:58:40;17.08;78.52
68943;DHT22;60852;52.190;4.422;2022-09-12T06:01:14;17.12;78.59
68943;DHT22;60852;52.190;4.422;2022-09-12T06:03:49;17.14;78.63
68943;DHT22;60852;52.190;4.422;2022-09-12T06:06:18;17.14;78.68
68943;DHT22;60852;52.190;4.422;2022-09-12T06:08:48;17.20;78.64
68943;DHT22;60852;52.190;4.422;2022-09-12T06:11:18;17.25;78.59
68943;DHT22;60852;52.190;4.422;2022-09-12T06:13:44;17.28;78.58
68943;DHT22;60852;52.190;4.422;2022-09-12T06:16:15;17.32;78.49
68943;DHT22;60852;52.190;4.422;2022-09-12T06:18:46;17.43;78.34
68943;DHT22;60852;52.190;4.422;2022-09-12T06:21:12;17.51;78.29
68943;DHT22;60852;52.190;4.422;2022-09-12T06:23:39;17.59;78.21
68943;DHT22;60852;52.190;4.422;2022-09-12T06:26:07;17.61;77.96
68943;DHT22;60852;52.190;4.422;2022-09-12T06:28:35;17.68;77.88
68943;DHT22;60852;52.190;4.422;2022-09-12T06:31:03;17.69;77.70
68943;DHT22;60852;52.190;4.422;2022-09-12T06:33:33;17.76;77.70
68943;DHT22;60852;52.190;4.422;2022-09-12T06:36:07;17.83;77.48
68943;DHT22;60852;52.190;4.422;2022-09-12T06:38:34;17.89;77.27
68943;DHT22;60852;52.190;4.422;2022-09-12T06:41:02;17.92;77.28
68943;DHT22;60852;52.190;4.422;2022-09-12T06:43:29;17.97;77.25
68943;DHT22;60852;52.190;4.422;2022-09-12T06:45:55;18.03;77.10
68943;DHT22;60852;52.190;4.422;2022-09-12T06:48:21;18.03;77.12
68943;DHT22;60852;52.190;4.422;2022-09-12T06:50:57;18.04;77.48
68943;DHT22;60852;52.190;4.422;2022-09-12T06:53:24;18.00;77.68
68943;DHT22;60852;52.190;4.422;2022-09-12T06:56:01;18.04;77.72
68943;DHT22;60852;52.190;4.422;2022-09-12T06:58:28;18.07;77.59
68943;DHT22;60852;52.190;4.422;2022-09-12T07:01:06;18.16;77.66
68943;DHT22;60852;52.190;4.422;2022-09-12T07:03:32;18.17;77.74
68943;DHT22;60852;52.190;4.422;2022-09-12T07:06:10;18.24;77.46
68943;DHT22;60852;52.190;4.422;2022-09-12T07:08:37;18.24;77.67
68943;DHT22;60852;52.190;4.422;2022-09-12T07:11:30;18.31;77.51
68943;DHT22;60852;52.190;4.422;2022-09-12T07:13:58;18.36;77.58
68943;DHT22;60852;52.190;4.422;2022-09-12T07:16:24;18.38;77.54
68943;DHT22;60852;52.190;4.422;2022-09-12T07:18:52;18.50;77.50
68943;DHT22;60852;52.190;4.422;2022-09-12T07:21:18;18.57;77.40
68943;DHT22;60852;52.190;4.422;2022-09-12T07:23:44;18.71;77.39
68943;DHT22;60852;52.190;4.422;2022-09-12T07:26:11;18.82;77.27
68943;DHT22;60852;52.190;4.422;2022-09-12T07:28:38;18.92;76.82
68943;DHT22;60852;52.190;4.422;2022-09-12T07:31:09;19.00;75.93
68943;DHT22;60852;52.190;4.422;2022-09-12T07:33:36;19.02;75.76
68943;DHT22;60852;52.190;4.422;2022-09-12T07:36:03;19.10;75.91
68943;DHT22;60852;52.190;4.422;2022-09-12T07:38:30;19.19;75.85
68943;DHT22;60852;52.190;4.422;2022-09-12T07:40:55;19.30;75.42
68943;DHT22;60852;52.190;4.422;2022-09-12T07:43:22;19.36;75.11
68943;DHT22;60852;52.190;4.422;2022-09-12T07:45:48;19.37;74.99
68943;DHT22;60852;52.190;4.422;2022-09-12T07:48:18;19.40;74.88
68943;DHT22;60852;52.190;4.422;2022-09-12T07:50:43;19.43;74.95
68943;DHT22;60852;52.190;4.422;2022-09-12T07:53:09;19.50;74.86
68943;DHT22;60852;52.190;4.422;2022-09-12T07:55:35;19.57;74.66
68943;DHT22;60852;52.190;4.422;2022-09-12T07:58:00;19.60;74.38
68943;DHT22;60852;52.190;4.422;2022-09-12T08:00:26;19.60;74.39
68943;DHT22;60852;52.190;4.422;2022-09-12T08:03:00;19.68;73.94
68943;DHT22;60852;52.190;4.422;2022-09-12T08:05:27;19.73;73.77
68943;DHT22;60852;52.190;4.422;2022-09-12T08:07:52;19.78;73.96
68943;DHT22;60852;52.190;4.422;2022-09-12T08:10:18;19.85;73.47
68943;DHT22;60852;52.190;4.422;2022-09-12T08:12:43;19.95;73.17
68943;DHT22;60852;52.190;4.422;2022-09-12T08:15:09;20.08;72.85
68943;DHT22;60852;52.190;4.422;2022-09-12T08:17:34;20.17;72.03
68943;DHT22;60852;52.190;4.422;2022-09-12T08:20:00;20.26;71.73
68943;DHT22;60852;52.190;4.422;2022-09-12T08:22:26;20.35;71.67
68943;DHT22;60852;52.190;4.422;2022-09-12T08:24:51;20.43;71.84
68943;DHT22;60852;52.190;4.422;2022-09-12T08:27:17;20.49;71.41
68943;DHT22;60852;52.190;4.422;2022-09-12T08:29:43;20.59;71.17
68943;DHT22;60852;52.190;4.422;2022-09-12T08:32:08;20.67;70.59
68943;DHT22;60852;52.190;4.422;2022-09-12T08:34:34;20.76;69.70
68943;DHT22;60852;52.190;4.422;2022-09-12T08:36:59;20.79;69.23
68943;DHT22;60852;52.190;4.422;2022-09-12T08:39:25;20.87;69.84
68943;DHT22;60852;52.190;4.422;2022-09-12T08:42:04;20.93;70.11
68943;DHT22;60852;52.190;4.422;2022-09-12T08:47:37;21.10;69.32
68943;DHT22;60852;52.190;4.422;2022-09-12T08:50:11;21.23;68.96
68943;DHT22;60852;52.190;4.422;2022-09-12T09:01:06;21.21;68.20
68943;DHT22;60852;52.190;4.422;2022-09-12T09:03:58;21.35;67.11
68943;DHT22;60852;52.190;4.422;2022-09-12T09:09:11;21.55;66.46
68943;DHT22;60852;52.190;4.422;2022-09-12T09:12:16;21.62;66.23
68943;DHT22;60852;52.190;4.422;2022-09-12T09:15:01;21.63;65.74
68943;DHT22;60852;52.190;4.422;2022-09-12T09:17:43;21.65;66.70
68943;DHT22;60852;52.190;4.422;2022-09-12T09:20:44;21.76;66.18
68943;DHT22;60852;52.190;4.422;2022-09-12T09:23:22;21.86;65.84
68943;DHT22;60852;52.190;4.422;2022-09-12T09:26:01;21.95;65.45
68943;DHT22;60852;52.190;4.422;2022-09-12T09:31:16;22.04;63.83
68943;DHT22;60852;52.190;4.422;2022-09-12T09:33:43;21.97;62.51
68943;DHT22;60852;52.190;4.422;2022-09-12T09:36:21;21.83;62.92
68943;DHT22;60852;52.190;4.422;2022-09-12T09:38:49;21.85;63.38
68943;DHT22;60852;52.190;4.422;2022-09-12T09:41:19;21.79;62.52
68943;DHT22;60852;52.190;4.422;2022-09-12T09:43:47;21.92;63.96
68943;DHT22;60852;52.190;4.422;2022-09-12T09:46:12;22.12;63.40
68943;DHT22;60852;52.190;4.422;2022-09-12T09:48:48;22.33;63.13
68943;DHT22;60852;52.190;4.422;2022-09-12T09:51:17;22.40;62.43
68943;DHT22;60852;52.190;4.422;2022-09-12T09:54:17;22.50;62.46
68943;DHT22;60852;52.190;4.422;2022-09-12T09:56:45;22.45;62.06
68943;DHT22;60852;52.190;4.422;2022-09-12T09:59:18;22.44;61.84
68943;DHT22;60852;52.190;4.422;2022-09-12T10:04:32;22.47;60.83
68943;DHT22;60852;52.190;4.422;2022-09-12T10:07:01;22.41;60.54
68943;DHT22;60852;52.190;4.422;2022-09-12T10:09:35;22.43;60.58
68943;DHT22;60852;52.190;4.422;2022-09-12T10:12:19;22.39;60.29
68943;DHT22;60852;52.190;4.422;2022-09-12T10:14:57;22.51;60.37
68943;DHT22;60852;52.190;4.422;2022-09-12T10:17:31;22.84;59.82
68943;DHT22;60852;52.190;4.422;2022-09-12T10:20:03;23.57;57.91
68943;DHT22;60852;52.190;4.422;2022-09-12T10:22:29;24.19;55.69
68943;DHT22;60852;52.190;4.422;2022-09-12T10:24:59;24.75;54.41
68943;DHT22;60852;52.190;4.422;2022-09-12T10:27:30;25.06;53.58
68943;DHT22;60852;52.190;4.422;2022-09-12T10:30:16;25.10;53.30
68943;DHT22;60852;52.190;4.422;2022-09-12T10:32:48;25.24;52.88
68943;DHT22;60852;52.190;4.422;2022-09-12T10:38:02;25.45;52.15
68943;DHT22;60852;52.190;4.422;2022-09-12T10:40:34;25.17;51.12
68943;DHT22;60852;52.190;4.422;2022-09-12T10:43:01;25.21;51.13
68943;DHT22;60852;52.190;4.422;2022-09-12T10:45:39;25.55;50.97
68943;DHT22;60852;52.190;4.422;2022-09-12T10:50:48;26.23;49.88
68943;DHT22;60852;52.190;4.422;2022-09-12T10:53:25;26.00;49.56
68943;DHT22;60852;52.190;4.422;2022-09-12T10:56:11;25.55;49.60
68943;DHT22;60852;52.190;4.422;2022-09-12T11:07:23;25.11;52.24
68943;DHT22;60852;52.190;4.422;2022-09-12T11:10:29;25.08;52.25
68943;DHT22;60852;52.190;4.422;2022-09-12T11:20:52;24.91;52.82
68943;DHT22;60852;52.190;4.422;2022-09-12T11:26:40;25.00;52.88
68943;DHT22;60852;52.190;4.422;2022-09-12T11:34:48;24.76;51.14
68943;DHT22;60852;52.190;4.422;2022-09-12T11:37:40;24.66;52.13
68943;DHT22;60852;52.190;4.422;2022-09-12T11:40:31;24.84;53.16
68943;DHT22;60852;52.190;4.422;2022-09-12T11:43:27;25.03;52.54
68943;DHT22;60852;52.190;4.422;2022-09-12T11:46:01;25.16;52.17
68943;DHT22;60852;52.190;4.422;2022-09-12T11:49:03;25.26;52.28
68943;DHT22;60852;52.190;4.422;2022-09-12T11:56:48;25.17;50.52
68943;DHT22;60852;52.190;4.422;2022-09-12T12:01:54;25.23;50.51
68943;DHT22;60852;52.190;4.422;2022-09-12T12:04:33;25.13;50.67
68943;DHT22;60852;52.190;4.422;2022-09-12T12:07:05;25.06;50.78
68943;DHT22;60852;52.190;4.422;2022-09-12T12:09:32;25.10;51.70
68943;DHT22;60852;52.190;4.422;2022-09-12T12:12:04;24.96;49.47
68943;DHT22;60852;52.190;4.422;2022-09-12T12:14:39;24.69;49.69
68943;DHT22;60852;52.190;4.422;2022-09-12T12:17:19;24.68;50.62
68943;DHT22;60852;52.190;4.422;2022-09-12T12:19:47;24.58;49.98
68943;DHT22;60852;52.190;4.422;2022-09-12T12:22:23;24.42;50.42
68943;DHT22;60852;52.190;4.422;2022-09-12T12:27:57;24.59;50.89
68943;DHT22;60852;52.190;4.422;2022-09-12T12:35:36;24.45;50.31
68943;DHT22;60852;52.190;4.422;2022-09-12T12:38:03;24.47;49.86
68943;DHT22;60852;52.190;4.422;2022-09-12T12:40:30;24.48;51.82
68943;DHT22;60852;52.190;4.422;2022-09-12T12:43:02;24.60;52.69
68943;DHT22;60852;52.190;4.422;2022-09-12T12:47:57;24.76;51.26
68943;DHT22;60852;52.190;4.422;2022-09-12T12:50:27;24.83;51.84
68943;DHT22;60852;52.190;4.422;2022-09-12T12:53:04;24.93;50.78
68943;DHT22;60852;52.190;4.422;2022-09-12T12:55:51;24.94;50.24
68943;DHT22;60852;52.190;4.422;2022-09-12T12:58:34;24.99;50.80
68943;DHT22;60852;52.190;4.422;2022-09-12T13:01:19;25.11;50.92
68943;DHT22;60852;52.190;4.422;2022-09-12T13:04:02;25.14;49.76
68943;DHT22;60852;52.190;4.422;2022-09-12T13:07:02;25.08;49.90
68943;DHT22;60852;52.190;4.422;2022-09-12T13:12:08;25.20;50.62
68943;DHT22;60852;52.190;4.422;2022-09-12T13:19:40;25.34;49.04
68943;DHT22;60852;52.190;4.422;2022-09-12T13:22:08;25.48;48.25
68943;DHT22;60852;52.190;4.422;2022-09-12T13:24:48;25.61;48.06
68943;DHT22;60852;52.190;4.422;2022-09-12T13:27:34;25.74;48.97
68943;DHT22;60852;52.190;4.422;2022-09-12T13:30:13;25.84;47.71
68943;DHT22;60852;52.190;4.422;2022-09-12T13:32:41;25.88;48.22
68943;DHT22;60852;52.190;4.422;2022-09-12T13:35:54;25.76;49.59
68943;DHT22;60852;52.190;4.422;2022-09-12T13:38:28;25.64;49.30
68943;DHT22;60852;52.190;4.422;2022-09-12T13:44:08;25.58;49.64
68943;DHT22;60852;52.190;4.422;2022-09-12T13:46:34;25.59;49.89
68943;DHT22;60852;52.190;4.422;2022-09-12T13:49:09;25.68;49.70
68943;DHT22;60852;52.190;4.422;2022-09-12T13:51:35;25.78;49.60
68943;DHT22;60852;52.190;4.422;2022-09-12T13:54:04;25.82;49.08
68943;DHT22;60852;52.190;4.422;2022-09-12T13:56:30;25.90;49.54
68943;DHT22;60852;52.190;4.422;2022-09-12T13:59:00;25.96;48.93
68943;DHT22;60852;52.190;4.422;2022-09-12T14:01:42;25.85;48.25
68943;DHT22;60852;52.190;4.422;2022-09-12T14:04:18;25.78;49.89
68943;DHT22;60852;52.190;4.422;2022-09-12T14:07:14;25.84;48.97
68943;DHT22;60852;52.190;4.422;2022-09-12T14:09:47;25.86;49.56
68943;DHT22;60852;52.190;4.422;2022-09-12T14:12:34;25.86;49.80
68943;DHT22;60852;52.190;4.422;2022-09-12T14:15:01;25.76;49.94
68943;DHT22;60852;52.190;4.422;2022-09-12T14:17:31;25.75;48.48
68943;DHT22;60852;52.190;4.422;2022-09-12T14:20:05;25.61;49.13
68943;DHT22;60852;52.190;4.422;2022-09-12T14:22:33;25.57;48.85
68943;DHT22;60852;52.190;4.422;2022-09-12T14:24:59;25.48;48.42
68943;DHT22;60852;52.190;4.422;2022-09-12T14:27:30;25.30;48.70
68943;DHT22;60852;52.190;4.422;2022-09-12T14:30:18;25.30;49.44
68943;DHT22;60852;52.190;4.422;2022-09-12T14:35:31;25.41;49.71
68943;DHT22;60852;52.190;4.422;2022-09-12T14:38:07;25.41;50.42
68943;DHT22;60852;52.190;4.422;2022-09-12T14:40:43;25.42;53.38
68943;DHT22;60852;52.190;4.422;2022-09-12T14:46:05;25.28;56.56
68943;DHT22;60852;52.190;4.422;2022-09-12T14:48:36;25.07;57.24
68943;DHT22;60852;52.190;4.422;2022-09-12T14:51:07;24.96;58.31
68943;DHT22;60852;52.190;4.422;2022-09-12T14:53:35;24.72;58.32
68943;DHT22;60852;52.190;4.422;2022-09-12T14:56:12;24.58;58.99
68943;DHT22;60852;52.190;4.422;2022-09-12T14:58:39;24.45;60.05
68943;DHT22;60852;52.190;4.422;2022-09-12T15:03:49;24.51;59.93
68943;DHT22;60852;52.190;4.422;2022-09-12T15:08:53;24.58;59.35
68943;DHT22;60852;52.190;4.422;2022-09-12T15:11:19;24.55;60.31
68943;DHT22;60852;52.190;4.422;2022-09-12T15:13:45;24.49;60.89
68943;DHT22;60852;52.190;4.422;2022-09-12T15:16:11;24.53;60.58
68943;DHT22;60852;52.190;4.422;2022-09-12T15:18:37;24.55;60.39
68943;DHT22;60852;52.190;4.422;2022-09-12T15:21:05;24.48;60.52
68943;DHT22;60852;52.190;4.422;2022-09-12T15:23:36;24.48;60.55
68943;DHT22;60852;52.190;4.422;2022-09-12T15:26:04;24.41;60.81
68943;DHT22;60852;52.190;4.422;2022-09-12T15:28:30;24.32;60.94
68943;DHT22;60852;52.190;4.422;2022-09-12T15:31:06;24.22;61.22
68943;DHT22;60852;52.190;4.422;2022-09-12T15:33:32;24.17;61.35
68943;DHT22;60852;52.190;4.422;2022-09-12T15:35:58;24.15;61.28
68943;DHT22;60852;52.190;4.422;2022-09-12T15:38:23;24.18;61.64
68943;DHT22;60852;52.190;4.422;2022-09-12T15:40:50;24.22;61.88
68943;DHT22;60852;52.190;4.422;2022-09-12T15:43:22;24.22;61.86
68943;DHT22;60852;52.190;4.422;2022-09-12T15:45:50;24.19;61.17
68943;DHT22;60852;52.190;4.422;2022-09-12T15:48:16;24.19;60.25
68943;DHT22;60852;52.190;4.422;2022-09-12T15:50:42;24.22;60.86
68943;DHT22;60852;52.190;4.422;2022-09-12T15:53:14;24.35;60.36
68943;DHT22;60852;52.190;4.422;2022-09-12T15:55:40;24.45;60.38
68943;DHT22;60852;52.190;4.422;2022-09-12T15:58:06;24.56;60.00
68943;DHT22;60852;52.190;4.422;2022-09-12T16:00:32;24.68;58.47
68943;DHT22;60852;52.190;4.422;2022-09-12T16:02:57;24.68;58.41
68943;DHT22;60852;52.190;4.422;2022-09-12T16:05:24;24.70;57.36
68943;DHT22;60852;52.190;4.422;2022-09-12T16:07:52;24.73;57.85
68943;DHT22;60852;52.190;4.422;2022-09-12T16:10:22;24.63;55.02
68943;DHT22;60852;52.190;4.422;2022-09-12T16:12:48;24.66;54.21
68943;DHT22;60852;52.190;4.422;2022-09-12T16:15:19;24.70;54.93
68943;DHT22;60852;52.190;4.422;2022-09-12T16:17:45;24.77;53.78
68943;DHT22;60852;52.190;4.422;2022-09-12T16:20:11;24.77;53.39
68943;DHT22;60852;52.190;4.422;2022-09-12T16:22:37;24.63;52.94
68943;DHT22;60852;52.190;4.422;2022-09-12T16:25:03;24.53;53.50
68943;DHT22;60852;52.190;4.422;2022-09-12T16:27:28;24.47;53.32
68943;DHT22;60852;52.190;4.422;2022-09-12T16:29:54;24.42;53.90
68943;DHT22;60852;52.190;4.422;2022-09-12T16:32:19;24.38;54.14
68943;DHT22;60852;52.190;4.422;2022-09-12T16:34:45;24.31;54.53
68943;DHT22;60852;52.190;4.422;2022-09-12T16:37:10;24.33;55.02
68943;DHT22;60852;52.190;4.422;2022-09-12T16:39:35;24.25;55.41
68943;DHT22;60852;52.190;4.422;2022-09-12T16:42:01;24.25;54.76
68943;DHT22;60852;52.190;4.422;2022-09-12T16:44:27;24.24;54.75
68943;DHT22;60852;52.190;4.422;2022-09-12T16:46:52;24.14;55.11
68943;DHT22;60852;52.190;4.422;2022-09-12T16:49:18;24.08;55.02
68943;DHT22;60852;52.190;4.422;2022-09-12T16:51:44;24.05;55.13
68943;DHT22;60852;52.190;4.422;2022-09-12T16:54:15;24.05;55.36
68943;DHT22;60852;52.190;4.422;2022-09-12T16:56:41;24.07;55.93
68943;DHT22;60852;52.190;4.422;2022-09-12T16:59:07;24.08;55.60
68943;DHT22;60852;52.190;4.422;2022-09-12T17:01:41;24.10;55.59
68943;DHT22;60852;52.190;4.422;2022-09-12T17:04:06;24.14;55.64
68943;DHT22;60852;52.190;4.422;2022-09-12T17:06:32;24.15;55.48
68943;DHT22;60852;52.190;4.422;2022-09-12T17:08:59;24.14;55.26
68943;DHT22;60852;52.190;4.422;2022-09-12T17:11:29;24.12;55.33
68943;DHT22;60852;52.190;4.422;2022-09-12T17:13:56;24.12;55.09
68943;DHT22;60852;52.190;4.422;2022-09-12T17:16:22;24.11;55.06
68943;DHT22;60852;52.190;4.422;2022-09-12T17:18:50;24.10;54.99
68943;DHT22;60852;52.190;4.422;2022-09-12T17:21:16;24.08;54.96
68943;DHT22;60852;52.190;4.422;2022-09-12T17:23:42;24.05;55.26
68943;DHT22;60852;52.190;4.422;2022-09-12T17:26:09;24.05;55.42
68943;DHT22;60852;52.190;4.422;2022-09-12T17:28:36;24.02;55.20
68943;DHT22;60852;52.190;4.422;2022-09-12T17:31:06;23.97;55.31
68943;DHT22;60852;52.190;4.422;2022-09-12T17:33:32;23.91;55.53
68943;DHT22;60852;52.190;4.422;2022-09-12T17:36:02;23.90;56.18
68943;DHT22;60852;52.190;4.422;2022-09-12T17:38:31;23.85;56.51
68943;DHT22;60852;52.190;4.422;2022-09-12T17:41:06;23.81;56.56
68943;DHT22;60852;52.190;4.422;2022-09-12T17:43:32;23.74;56.87
68943;DHT22;60852;52.190;4.422;2022-09-12T17:45:58;23.69;57.78
68943;DHT22;60852;52.190;4.422;2022-09-12T17:48:23;23.63;57.23
68943;DHT22;60852;52.190;4.422;2022-09-12T17:50:49;23.57;57.33
68943;DHT22;60852;52.190;4.422;2022-09-12T17:53:15;23.54;57.89
68943;DHT22;60852;52.190;4.422;2022-09-12T17:55:40;23.54;58.56
68943;DHT22;60852;52.190;4.422;2022-09-12T17:58:06;23.50;58.49
68943;DHT22;60852;52.190;4.422;2022-09-12T18:00:33;23.50;59.02